Time;durP1;ratioP1;P1;durP2;ratioP2;P2;SDS_P1;SDS_P2;PMS_P1;PMS_P2;Temp;Humidity;BMP_temperature;BMP_pressure;BME280_temperature;BME280_humidity;BME280_pressure;Samples;Min_cycle;Max_cycle;Signal;HPM_P1;HPM_P2
2023/12/28 00:02:01;;;;;;;20.65;4.47;;;19.40;59.00;;;;;;5126404;27;20108;-63
2023/12/28 00:04:28;;;;;;;17.75;4.78;;;19.40;59.10;;;;;;5126906;27;20098;-64
2023/12/28 00:06:54;;;;;;;29.10;5.00;;;19.30;59.50;;;;;;5125553;27;20087;-64
2023/12/28 00:09:21;;;;;;;15.10;5.18;;;19.20;59.80;;;;;;5127629;27;20072;-64
2023/12/28 00:11:47;;;;;;;22.92;5.97;;;19.10;61.00;;;;;;5126085;27;20124;-63
2023/12/28 00:14:14;;;;;;;28.45;6.35;;;19.00;61.70;;;;;;5126377;27;20068;-64
2023/12/28 00:16:40;;;;;;;27.73;7.90;;;18.90;62.30;;;;;;5109230;27;20078;-65
2023/12/28 00:19:06;;;;;;;22.00;6.82;;;18.80;62.20;;;;;;5125165;27;20079;-63
2023/12/28 00:21:33;;;;;;;22.17;6.22;;;18.80;62.70;;;;;;5127146;27;20100;-63
2023/12/28 00:23:59;;;;;;;25.88;6.43;;;18.70;63.30;;;;;;5125885;27;20455;-63
2023/12/28 00:26:26;;;;;;;23.90;5.85;;;18.60;65.90;;;;;;5126706;27;20076;-63
2023/12/28 00:28:52;;;;;;;27.90;6.18;;;18.50;67.50;;;;;;5108458;27;20075;-63
2023/12/28 00:31:19;;;;;;;20.08;6.65;;;18.30;67.40;;;;;;5126577;27;20094;-63
2023/12/28 00:33:45;;;;;;;28.08;7.00;;;18.10;68.20;;;;;;5124980;27;20072;-63
2023/12/28 00:36:12;;;;;;;30.08;7.97;;;18.00;69.10;;;;;;5126814;27;20072;-62
2023/12/28 00:38:38;;;;;;;20.02;8.75;;;17.80;70.10;;;;;;5109102;28;20080;-61
2023/12/28 00:41:05;;;;;;;27.13;8.15;;;17.70;70.80;;;;;;5125733;28;20513;-62
2023/12/28 00:43:34;;;;;;;34.88;8.60;;;17.60;71.60;;;;;;5125018;27;20119;-63
2023/12/28 00:46:00;;;;;;;32.75;8.93;;;17.50;72.60;;;;;;5126753;27;20162;-64
2023/12/28 00:48:27;;;;;;;35.20;9.63;;;17.40;73.20;;;;;;5108488;28;20125;-61
2023/12/28 00:50:58;;;;;;;36.92;9.35;;;17.20;74.40;;;;;;5126825;28;20502;-62
2023/12/28 00:53:26;;;;;;;37.72;9.02;;;17.10;74.30;;;;;;5126514;28;20071;-62
2023/12/28 00:55:53;;;;;;;48.38;13.25;;;17.00;75.00;;;;;;5126693;28;20091;-62
2023/12/28 00:58:19;;;;;;;47.17;20.02;;;17.00;76.70;;;;;;5126010;28;20116;-62
2023/12/28 01:00:46;;;;;;;54.20;18.10;;;16.90;76.40;;;;;;5124084;28;20134;-63
2023/12/28 01:03:12;;;;;;;53.67;15.55;;;16.90;77.70;;;;;;5124374;28;20163;-63
2023/12/28 01:05:39;;;;;;;44.53;14.25;;;16.80;77.40;;;;;;5126232;28;20079;-62
2023/12/28 01:08:05;;;;;;;46.50;12.02;;;16.70;78.40;;;;;;5123873;28;20094;-62
2023/12/28 01:10:32;;;;;;;39.25;10.27;;;16.60;79.10;;;;;;5127445;28;20091;-62
2023/12/28 01:12:58;;;;;;;41.15;9.00;;;16.50;80.10;;;;;;5126912;28;20079;-64
2023/12/28 01:15:25;;;;;;;50.10;10.20;;;16.40;80.20;;;;;;5126171;28;20506;-63
2023/12/28 01:17:51;;;;;;;47.22;9.18;;;16.40;80.60;;;;;;5124827;28;20505;-62
2023/12/28 01:20:18;;;;;;;48.67;9.38;;;16.30;81.40;;;;;;5126342;28;20083;-63
2023/12/28 01:22:44;;;;;;;53.47;9.43;;;16.10;81.80;;;;;;5122764;28;20135;-63
2023/12/28 01:25:11;;;;;;;66.15;11.27;;;16.00;81.80;;;;;;5125267;28;20083;-62
2023/12/28 01:27:37;;;;;;;56.97;13.65;;;16.00;81.90;;;;;;5126821;28;20088;-63
2023/12/28 01:30:04;;;;;;;59.17;15.25;;;16.00;82.90;;;;;;5124880;28;20080;-62
2023/12/28 01:32:31;;;;;;;69.43;16.80;;;16.00;82.90;;;;;;5125826;28;20155;-62
2023/12/28 01:34:57;;;;;;;69.95;15.95;;;15.90;82.90;;;;;;5125766;28;20112;-62
2023/12/28 01:37:24;;;;;;;64.20;17.45;;;15.80;83.40;;;;;;5126116;28;20155;-62
2023/12/28 01:39:50;;;;;;;83.22;18.40;;;15.80;85.20;;;;;;5126267;28;20155;-62
2023/12/28 01:42:18;;;;;;;72.68;20.05;;;15.80;86.00;;;;;;5124314;28;20111;-62
2023/12/28 01:44:44;;;;;;;62.83;17.88;;;15.60;85.90;;;;;;5126411;27;20538;-61
2023/12/28 01:47:11;;;;;;;80.25;17.98;;;15.50;86.90;;;;;;5129799;27;20082;-62
2023/12/28 01:49:37;;;;;;;70.35;17.63;;;15.50;87.00;;;;;;5129584;27;20536;-62
2023/12/28 01:52:05;;;;;;;79.80;19.20;;;15.40;87.30;;;;;;5129098;27;20068;-62
2023/12/28 01:54:32;;;;;;;77.93;20.30;;;15.40;88.60;;;;;;5131815;27;20099;-63
2023/12/28 01:57:01;;;;;;;84.07;25.10;;;15.30;88.90;;;;;;5111618;27;20168;-62
2023/12/28 01:59:28;;;;;;;102.72;31.27;;;15.30;88.90;;;;;;5129700;27;20548;-62
2023/12/28 02:01:55;;;;;;;105.07;29.52;;;15.20;89.40;;;;;;5129207;27;20103;-63
2023/12/28 02:04:27;;;;;;;100.85;28.38;;;15.20;90.00;;;;;;5127951;27;20096;-63
2023/12/28 02:06:58;;;;;;;97.70;28.40;;;15.20;90.00;;;;;;5128769;27;20103;-62
2023/12/28 02:09:25;;;;;;;100.70;27.02;;;15.10;90.10;;;;;;5109168;27;20390;-62
2023/12/28 02:11:52;;;;;;;104.15;27.50;;;15.10;90.40;;;;;;5130921;27;20478;-60
2023/12/28 02:14:19;;;;;;;92.72;28.02;;;15.10;90.20;;;;;;5129016;27;20517;-64
2023/12/28 02:17:07;;;;;;;115.15;27.73;;;15.00;90.30;;;;;;5129025;27;20797;-62
2023/12/28 02:20:07;;;;;;;120.22;30.10;;;15.00;90.70;;;;;;5129940;27;20067;-62
2023/12/28 02:22:35;;;;;;;120.60;32.40;;;15.10;90.80;;;;;;5073075;27;20114;-63
2023/12/28 02:25:14;;;;;;;130.45;34.88;;;15.00;90.90;;;;;;5111012;27;20080;-62
2023/12/28 02:27:43;;;;;;;116.88;32.47;;;15.00;91.00;;;;;;5128391;27;20501;-61
2023/12/28 02:30:10;;;;;;;122.82;31.58;;;15.00;92.00;;;;;;5127271;27;20153;-62
2023/12/28 02:32:41;;;;;;;103.55;30.52;;;14.90;91.70;;;;;;5127815;27;20208;-61
2023/12/28 02:35:19;;;;;;;135.48;35.15;;;14.90;91.40;;;;;;5129374;27;20056;-61
2023/12/28 02:37:53;;;;;;;142.75;41.08;;;14.90;91.40;;;;;;5130213;27;20075;-63
2023/12/28 02:40:21;;;;;;;135.55;38.97;;;14.90;92.00;;;;;;5127096;27;20176;-62
2023/12/28 02:42:48;;;;;;;124.97;34.00;;;14.80;92.40;;;;;;5128457;27;20506;-62
2023/12/28 02:45:14;;;;;;;122.30;30.75;;;14.80;92.50;;;;;;5128547;27;20216;-61
2023/12/28 02:47:41;;;;;;;136.15;26.33;;;14.70;93.20;;;;;;5126331;27;20095;-62
2023/12/28 02:50:08;;;;;;;116.18;25.95;;;14.60;93.00;;;;;;5126623;27;20112;-61
2023/12/28 02:52:34;;;;;;;105.25;25.45;;;14.60;93.20;;;;;;5129632;27;20079;-61
2023/12/28 02:55:01;;;;;;;113.88;30.92;;;14.50;93.60;;;;;;5127684;27;20473;-60
2023/12/28 02:57:28;;;;;;;144.82;38.53;;;14.50;94.10;;;;;;5128461;27;20080;-59
2023/12/28 02:59:56;;;;;;;141.40;31.80;;;14.50;94.10;;;;;;5128648;27;20529;-62
2023/12/28 03:02:23;;;;;;;136.52;31.33;;;14.50;94.40;;;;;;5126837;27;20104;-57
2023/12/28 03:04:50;;;;;;;135.50;36.85;;;14.40;94.60;;;;;;5127438;27;20159;-61
2023/12/28 03:07:16;;;;;;;135.60;28.23;;;14.40;94.90;;;;;;5128326;27;20072;-62
2023/12/28 03:09:43;;;;;;;134.23;29.88;;;14.40;94.80;;;;;;5126912;27;20099;-63
2023/12/28 03:12:10;;;;;;;135.48;28.52;;;14.40;95.40;;;;;;5124805;27;20102;-64
2023/12/28 03:14:36;;;;;;;167.98;31.48;;;14.40;95.50;;;;;;5127262;27;20074;-63
2023/12/28 03:17:03;;;;;;;152.40;29.42;;;14.40;95.00;;;;;;5129971;27;20116;-63
2023/12/28 03:19:30;;;;;;;142.70;29.50;;;14.40;95.40;;;;;;5126738;27;20080;-64
2023/12/28 03:21:56;;;;;;;164.70;34.38;;;14.40;95.30;;;;;;5128758;27;20213;-63
2023/12/28 03:24:23;;;;;;;147.27;35.60;;;14.40;95.20;;;;;;5125676;27;20080;-63
2023/12/28 03:26:49;;;;;;;174.40;34.88;;;14.30;95.00;;;;;;5126382;27;20075;-64
2023/12/28 03:29:16;;;;;;;116.40;31.20;;;14.40;95.50;;;;;;5128682;27;20078;-65
2023/12/28 03:31:42;;;;;;;191.77;34.40;;;14.30;95.70;;;;;;5127941;27;20064;-62
2023/12/28 03:34:09;;;;;;;153.80;35.25;;;14.20;95.90;;;;;;5127469;27;20076;-61
2023/12/28 03:36:35;;;;;;;164.25;36.33;;;14.20;96.20;;;;;;5128542;27;20072;-61
2023/12/28 03:39:03;;;;;;;155.98;35.28;;;14.10;96.70;;;;;;5128732;27;20075;-62
2023/12/28 03:41:30;;;;;;;159.63;35.95;;;14.00;97.00;;;;;;5127973;27;20110;-64
2023/12/28 03:43:56;;;;;;;147.93;33.75;;;14.10;97.00;;;;;;5110051;27;20076;-62
2023/12/28 03:46:23;;;;;;;154.30;34.65;;;14.00;97.20;;;;;;5129764;27;20110;-63
2023/12/28 03:48:49;;;;;;;145.77;38.75;;;14.00;97.20;;;;;;5127276;27;20068;-61
2023/12/28 03:51:16;;;;;;;149.70;36.70;;;14.00;97.20;;;;;;5126763;27;20074;-61
2023/12/28 03:53:46;;;;;;;152.75;41.40;;;14.00;97.10;;;;;;5127101;27;20076;-62
2023/12/28 03:56:35;;;;;;;159.35;40.50;;;14.00;97.70;;;;;;5128323;27;20551;-60
2023/12/28 03:59:02;;;;;;;162.98;40.13;;;14.00;97.90;;;;;;5126494;27;20117;-62
2023/12/28 04:01:28;;;;;;;148.82;41.70;;;14.00;98.10;;;;;;5126748;27;20147;-61
2023/12/28 04:03:55;;;;;;;152.45;46.20;;;14.00;98.40;;;;;;5127718;27;20072;-63
2023/12/28 04:06:21;;;;;;;182.02;46.55;;;14.00;98.70;;;;;;5125716;27;20099;-61
2023/12/28 04:08:48;;;;;;;160.38;48.60;;;14.00;99.10;;;;;;5127939;27;20075;-62
2023/12/28 04:11:15;;;;;;;164.75;50.00;;;14.00;99.10;;;;;;5123117;27;20083;-62
2023/12/28 04:13:41;;;;;;;189.55;53.92;;;14.00;98.70;;;;;;5107364;27;21098;-61
2023/12/28 04:16:12;;;;;;;177.07;52.50;;;14.00;99.20;;;;;;5127650;27;20164;-60
2023/12/28 04:18:38;;;;;;;200.55;52.22;;;14.00;99.40;;;;;;5126507;27;20079;-60
2023/12/28 04:21:07;;;;;;;163.93;48.00;;;14.00;99.30;;;;;;5124495;27;20123;-61
2023/12/28 04:23:34;;;;;;;161.50;49.78;;;13.90;99.50;;;;;;5129182;27;20525;-61
2023/12/28 04:26:00;;;;;;;204.45;55.85;;;13.90;99.70;;;;;;5127810;27;20497;-60
2023/12/28 04:28:27;;;;;;;188.23;51.95;;;13.80;99.80;;;;;;5108876;28;20084;-61
2023/12/28 04:30:53;;;;;;;176.98;49.42;;;13.80;99.90;;;;;;5127790;27;20064;-61
2023/12/28 04:33:20;;;;;;;160.35;49.83;;;13.80;99.90;;;;;;5128491;27;20077;-62
2023/12/28 04:35:46;;;;;;;157.52;49.08;;;13.70;99.90;;;;;;5127060;27;20151;-61
2023/12/28 04:38:13;;;;;;;188.95;48.28;;;13.70;99.90;;;;;;5107033;28;20080;-61
2023/12/28 04:40:40;;;;;;;196.07;51.30;;;13.70;99.90;;;;;;5126693;27;20064;-62
2023/12/28 04:43:06;;;;;;;192.20;51.13;;;13.70;99.90;;;;;;5126562;27;20115;-61
2023/12/28 04:45:33;;;;;;;197.20;51.95;;;13.60;99.90;;;;;;5128222;27;20200;-62
2023/12/28 04:48:00;;;;;;;189.15;48.90;;;13.50;99.90;;;;;;5123360;27;20076;-59
2023/12/28 04:50:26;;;;;;;197.38;50.83;;;13.50;99.90;;;;;;5128350;28;20570;-61
2023/12/28 04:52:53;;;;;;;203.93;54.78;;;13.50;99.90;;;;;;5125812;28;20109;-61
2023/12/28 04:55:20;;;;;;;;;;;13.40;99.90;;;;;;5132548;28;20116;-61
2023/12/28 04:57:47;;;;;;;233.38;67.57;;;13.40;99.90;;;;;;5129413;28;19963;-61
2023/12/28 05:00:14;;;;;;;225.57;67.53;;;13.40;99.90;;;;;;5128645;28;20072;-61
2023/12/28 05:02:41;;;;;;;204.35;61.45;;;13.20;99.90;;;;;;5128206;28;20946;-61
2023/12/28 05:05:08;;;;;;;;;;;13.20;99.90;;;;;;5126549;28;20158;-61
2023/12/28 05:07:35;;;;;;;196.23;57.05;;;13.20;99.90;;;;;;5106827;28;19999;-60
2023/12/28 05:10:02;;;;;;;186.80;55.83;;;13.10;99.90;;;;;;5123645;28;20084;-62
2023/12/28 05:12:28;;;;;;;186.45;57.20;;;13.00;99.90;;;;;;5124225;28;20091;-60
2023/12/28 05:14:54;;;;;;;;;;;13.00;99.90;;;;;;5125921;28;20116;-61
2023/12/28 05:17:21;;;;;;;196.88;59.67;;;13.00;99.90;;;;;;5126573;28;19971;-61
2023/12/28 05:19:47;;;;;;;169.60;58.53;;;13.00;99.90;;;;;;5129268;27;20071;-61
2023/12/28 05:22:14;;;;;;;190.02;59.50;;;12.90;99.90;;;;;;5130743;27;20115;-61
2023/12/28 05:24:40;;;;;;;;;;;12.90;99.90;;;;;;5125273;27;20084;-60
2023/12/28 05:27:06;;;;;;;180.70;56.35;;;12.90;99.90;;;;;;5130319;27;19960;-61
2023/12/28 05:29:33;;;;;;;179.50;58.53;;;12.80;99.90;;;;;;5130881;27;20519;-61
2023/12/28 05:31:59;;;;;;;180.43;60.90;;;12.70;99.90;;;;;;5130214;27;20458;-60
2023/12/28 05:34:26;;;;;;;200.60;63.42;;;12.70;99.90;;;;;;5130236;27;20422;-60
2023/12/28 05:36:52;;;;;;;190.40;59.22;;;12.70;99.90;;;;;;5131289;27;20068;-61
2023/12/28 05:39:18;;;;;;;;;;;12.70;99.90;;;;;;5127769;27;20071;-61
2023/12/28 05:41:47;;;;;;;220.73;64.00;;;12.60;99.90;;;;;;5129517;27;19983;-60
2023/12/28 05:44:14;;;;;;;170.27;61.17;;;12.60;99.90;;;;;;5128611;27;20087;-60
2023/12/28 05:46:41;;;;;;;206.65;63.45;;;12.50;99.90;;;;;;5129430;27;20068;-62
2023/12/28 05:49:07;;;;;;;200.25;61.13;;;12.50;99.90;;;;;;5129919;27;20533;-61
2023/12/28 05:51:40;;;;;;;191.48;61.08;;;12.40;99.90;;;;;;5128058;27;20076;-60
2023/12/28 05:54:07;;;;;;;207.95;66.13;;;12.50;99.90;;;;;;5128696;27;20103;-60
2023/12/28 05:56:34;;;;;;;187.02;62.78;;;12.50;99.90;;;;;;5129804;27;20461;-60
2023/12/28 05:59:01;;;;;;;220.45;73.30;;;12.40;99.90;;;;;;5130233;27;20079;-61
2023/12/28 06:01:27;;;;;;;224.65;82.10;;;12.50;99.90;;;;;;5111387;27;20469;-60
2023/12/28 06:03:54;;;;;;;240.63;84.07;;;12.40;99.90;;;;;;5129476;27;20079;-61
2023/12/28 06:06:21;;;;;;;207.25;80.03;;;12.30;99.90;;;;;;5129093;27;20193;-61
2023/12/28 06:08:47;;;;;;;237.77;80.50;;;12.30;99.90;;;;;;5111912;27;20067;-61
2023/12/28 06:11:14;;;;;;;233.32;75.32;;;12.20;99.90;;;;;;5128829;27;20575;-60
2023/12/28 06:13:40;;;;;;;221.23;78.35;;;12.10;99.90;;;;;;5130681;27;20529;-62
2023/12/28 06:16:07;;;;;;;206.80;76.05;;;12.20;99.90;;;;;;5129456;27;20078;-61
2023/12/28 06:18:33;;;;;;;229.52;73.60;;;12.10;99.90;;;;;;5129118;27;20080;-62
2023/12/28 06:21:00;;;;;;;205.77;70.32;;;12.10;99.90;;;;;;5129754;27;20076;-61
2023/12/28 06:23:26;;;;;;;203.27;66.10;;;12.10;99.90;;;;;;5128993;27;20433;-62
2023/12/28 06:25:54;;;;;;;187.70;68.30;;;12.10;99.90;;;;;;5128766;27;20438;-62
2023/12/28 06:28:20;;;;;;;213.55;69.78;;;12.10;99.90;;;;;;5130193;27;20135;-63
2023/12/28 06:30:46;;;;;;;;;;;12.00;99.90;;;;;;5127267;27;20166;-61
2023/12/28 06:33:13;;;;;;;207.25;69.90;;;11.90;99.90;;;;;;5130564;27;20440;-61
2023/12/28 06:35:40;;;;;;;225.68;72.07;;;11.90;99.90;;;;;;5130070;27;20208;-63
2023/12/28 06:38:06;;;;;;;223.25;71.63;;;11.80;99.90;;;;;;5129531;27;20078;-62
2023/12/28 06:40:33;;;;;;;207.70;72.55;;;11.80;99.90;;;;;;5127255;27;20075;-61
2023/12/28 06:43:00;;;;;;;229.55;76.28;;;11.80;99.90;;;;;;5128590;27;20117;-62
2023/12/28 06:45:27;;;;;;;222.95;72.80;;;11.80;99.90;;;;;;5129838;27;20068;-60
2023/12/28 06:47:54;;;;;;;201.98;70.47;;;11.80;99.90;;;;;;5130161;27;20072;-61
2023/12/28 06:50:20;;;;;;;203.88;74.00;;;11.90;99.90;;;;;;5127841;27;20075;-62
2023/12/28 06:52:47;;;;;;;209.35;71.57;;;11.80;99.90;;;;;;5127037;27;20064;-62
2023/12/28 06:55:14;;;;;;;220.68;76.75;;;11.80;99.90;;;;;;5109807;27;20078;-61
2023/12/28 06:57:40;;;;;;;205.13;70.80;;;11.80;99.90;;;;;;5111400;27;20111;-61
2023/12/28 07:00:07;;;;;;;182.75;67.80;;;11.80;99.90;;;;;;5128632;27;20121;-61
2023/12/28 07:02:34;;;;;;;193.48;70.10;;;11.80;99.90;;;;;;5127435;27;20126;-62
2023/12/28 07:05:00;;;;;;;214.13;86.07;;;11.70;99.90;;;;;;5126448;27;20080;-61
2023/12/28 07:07:26;;;;;;;;;;;11.80;99.90;;;;;;5129669;27;20133;-61
2023/12/28 07:09:52;;;;;;;156.13;63.63;;;11.70;99.90;;;;;;5128132;27;19955;-62
2023/12/28 07:12:20;;;;;;;224.05;73.10;;;11.70;99.90;;;;;;5128513;27;20137;-61
2023/12/28 07:14:47;;;;;;;218.25;72.57;;;11.60;99.90;;;;;;5124446;27;20075;-61
2023/12/28 07:17:17;;;;;;;195.40;70.50;;;11.60;99.90;;;;;;5129666;27;20110;-61
2023/12/28 07:19:44;;;;;;;203.13;71.43;;;11.60;99.90;;;;;;5128062;27;20075;-60
2023/12/28 07:22:10;;;;;;;197.63;71.22;;;11.60;99.90;;;;;;5128259;27;20111;-60
2023/12/28 07:24:37;;;;;;;202.43;67.78;;;11.60;99.90;;;;;;5128887;27;20525;-61
2023/12/28 07:27:04;;;;;;;178.95;64.88;;;11.50;99.90;;;;;;5108853;27;20071;-61
2023/12/28 07:29:30;;;;;;;168.98;64.43;;;11.60;99.90;;;;;;5127876;27;20136;-61
2023/12/28 07:31:56;;;;;;;209.80;67.40;;;11.60;99.90;;;;;;5110509;27;20114;-60
2023/12/28 07:34:23;;;;;;;177.10;61.70;;;11.60;99.90;;;;;;5128287;27;20075;-61
2023/12/28 07:36:49;;;;;;;188.05;61.03;;;11.50;99.90;;;;;;5126890;27;20178;-61
2023/12/28 07:39:15;;;;;;;;;;;11.50;99.90;;;;;;5127166;27;20107;-61
2023/12/28 07:41:42;;;;;;;187.55;59.85;;;11.50;99.90;;;;;;5109442;27;20423;-62
2023/12/28 07:44:08;;;;;;;176.80;60.58;;;11.50;99.90;;;;;;5130617;27;20106;-62
2023/12/28 07:46:35;;;;;;;184.85;62.40;;;11.40;99.90;;;;;;5134655;27;20067;-61
2023/12/28 07:49:01;;;;;;;163.57;56.80;;;11.40;99.90;;;;;;5129071;27;20072;-62
2023/12/28 07:51:28;;;;;;;157.10;59.17;;;11.40;99.90;;;;;;5128504;27;20076;-62
2023/12/28 07:53:54;;;;;;;164.90;59.08;;;11.40;99.90;;;;;;5128160;27;20522;-62
2023/12/28 07:56:21;;;;;;;153.32;60.33;;;11.40;99.90;;;;;;5129064;27;20075;-62
2023/12/28 07:58:47;;;;;;;177.23;62.72;;;11.40;99.90;;;;;;5128050;27;20124;-62
2023/12/28 08:01:14;;;;;;;170.07;63.55;;;11.30;99.90;;;;;;5128159;27;20171;-62
2023/12/28 08:03:40;;;;;;;172.15;61.25;;;11.20;99.90;;;;;;5125183;27;20538;-63
2023/12/28 08:06:07;;;;;;;159.38;59.58;;;11.20;99.90;;;;;;5127179;27;20064;-62
2023/12/28 08:08:34;;;;;;;176.07;58.42;;;11.30;99.90;;;;;;5127306;27;20072;-61
2023/12/28 08:11:00;;;;;;;155.68;60.33;;;11.20;99.90;;;;;;5128210;27;20565;-62
2023/12/28 08:13:27;;;;;;;173.82;59.35;;;11.20;99.90;;;;;;5128076;27;20414;-62
2023/12/28 08:15:53;;;;;;;157.50;58.55;;;11.20;99.90;;;;;;5128173;27;20072;-62
2023/12/28 08:18:20;;;;;;;160.68;59.75;;;11.20;99.90;;;;;;5127719;27;20127;-62
2023/12/28 08:20:46;;;;;;;153.55;58.45;;;11.10;99.90;;;;;;5128303;27;20090;-62
2023/12/28 08:23:12;;;;;;;169.25;58.60;;;11.20;99.90;;;;;;5127137;27;20119;-62
2023/12/28 08:25:39;;;;;;;166.10;59.95;;;11.20;99.90;;;;;;5126538;27;20517;-62
2023/12/28 08:28:06;;;;;;;145.40;57.38;;;11.20;99.90;;;;;;5128374;27;20220;-61
2023/12/28 08:30:32;;;;;;;163.65;56.22;;;11.20;99.90;;;;;;5125902;27;20112;-62
2023/12/28 08:32:59;;;;;;;163.07;59.10;;;11.20;99.90;;;;;;5125525;27;20436;-61
2023/12/28 08:35:25;;;;;;;166.60;58.67;;;11.20;99.90;;;;;;5126465;27;20072;-60
2023/12/28 08:37:51;;;;;;;157.93;57.30;;;11.10;99.90;;;;;;5126538;27;20080;-61
2023/12/28 08:40:18;;;;;;;162.50;59.10;;;11.10;99.90;;;;;;5126578;27;20091;-62
2023/12/28 08:42:45;;;;;;;170.38;60.72;;;11.10;99.90;;;;;;5123985;27;20206;-61
2023/12/28 08:45:11;;;;;;;152.02;56.63;;;11.10;99.90;;;;;;5128045;27;20594;-61
2023/12/28 08:47:38;;;;;;;158.35;58.92;;;11.10;99.90;;;;;;5126146;27;20115;-61
2023/12/28 08:50:05;;;;;;;175.55;61.25;;;11.10;99.90;;;;;;5125283;27;20522;-63
2023/12/28 08:52:32;;;;;;;164.48;59.20;;;11.10;99.90;;;;;;5126739;27;20080;-62
2023/12/28 08:55:00;;;;;;;135.02;56.47;;;11.10;99.90;;;;;;5127357;28;20068;-62
2023/12/28 08:57:26;;;;;;;166.32;60.28;;;11.10;99.90;;;;;;5107886;28;20068;-60
2023/12/28 08:59:53;;;;;;;147.10;58.80;;;11.20;99.90;;;;;;5127435;28;20113;-61
2023/12/28 09:02:19;;;;;;;160.32;57.35;;;11.20;99.90;;;;;;5125290;28;20102;-61
2023/12/28 09:04:46;;;;;;;137.07;51.60;;;11.20;99.90;;;;;;5109228;28;20103;-61
2023/12/28 09:07:13;;;;;;;133.65;49.58;;;11.10;99.90;;;;;;5127914;28;20072;-61
2023/12/28 09:09:39;;;;;;;141.65;52.58;;;11.10;99.90;;;;;;5107637;28;20075;-61
2023/12/28 09:12:06;;;;;;;146.95;51.47;;;11.00;99.90;;;;;;5128577;28;20090;-62
2023/12/28 09:14:32;;;;;;;118.43;48.05;;;11.00;99.90;;;;;;5123482;28;20075;-62
2023/12/28 09:16:59;;;;;;;120.72;47.50;;;11.00;99.90;;;;;;5126444;28;20076;-61
2023/12/28 09:19:25;;;;;;;132.13;45.45;;;11.00;99.90;;;;;;5126615;28;20076;-62
2023/12/28 09:21:52;;;;;;;117.25;45.33;;;11.00;99.90;;;;;;5105156;28;20127;-62
2023/12/28 09:24:18;;;;;;;119.85;42.58;;;11.10;99.90;;;;;;5126921;28;20441;-62
2023/12/28 09:26:45;;;;;;;116.60;44.22;;;11.20;99.90;;;;;;5124704;28;20145;-61
2023/12/28 09:29:11;;;;;;;114.38;42.95;;;11.10;99.90;;;;;;5127683;28;20074;-61
2023/12/28 09:31:39;;;;;;;102.32;40.60;;;11.20;99.90;;;;;;5124446;28;20072;-62
2023/12/28 09:34:06;;;;;;;130.68;43.90;;;11.10;99.90;;;;;;5126890;28;20072;-61
2023/12/28 09:36:32;;;;;;;125.75;42.65;;;11.20;99.90;;;;;;5126587;28;20071;-61
2023/12/28 09:38:59;;;;;;;112.32;43.80;;;11.10;99.90;;;;;;5125302;28;20080;-61
2023/12/28 09:41:35;;;;;;;113.88;43.92;;;11.10;99.90;;;;;;5127747;28;20111;-61
2023/12/28 09:44:18;;;;;;;122.93;44.63;;;11.10;99.90;;;;;;5123764;28;20967;-62
2023/12/28 09:46:46;;;;;;;123.70;44.13;;;11.20;99.90;;;;;;5123598;28;20478;-63
2023/12/28 09:49:12;;;;;;;133.05;47.53;;;11.20;99.90;;;;;;5126582;28;20517;-61
2023/12/28 09:51:39;;;;;;;141.88;51.65;;;11.10;99.90;;;;;;5128025;28;20080;-62
2023/12/28 09:54:06;;;;;;;131.27;48.65;;;11.00;99.90;;;;;;5127204;28;20159;-61
2023/12/28 09:56:34;;;;;;;140.57;51.28;;;11.10;99.90;;;;;;5109092;28;20072;-62
2023/12/28 09:59:02;;;;;;;136.02;49.90;;;11.10;99.90;;;;;;5125825;28;20068;-62
2023/12/28 10:01:29;;;;;;;149.48;51.15;;;11.10;99.90;;;;;;5127332;28;20189;-62
2023/12/28 10:03:56;;;;;;;146.43;52.53;;;11.10;99.90;;;;;;5126251;27;20086;-62
2023/12/28 10:06:22;;;;;;;148.88;53.70;;;11.10;99.90;;;;;;5127620;27;20441;-61
2023/12/28 10:08:49;;;;;;;139.23;52.97;;;11.10;99.90;;;;;;5130784;27;20116;-61
2023/12/28 10:11:19;;;;;;;129.88;53.42;;;11.10;99.90;;;;;;5128345;27;20090;-73
2023/12/28 10:13:46;;;;;;;143.63;54.40;;;11.30;99.90;;;;;;5131616;27;20071;-71
2023/12/28 10:16:13;;;;;;;158.13;57.58;;;11.70;99.90;;;;;;5127483;27;20469;-72
2023/12/28 10:18:43;;;;;;;133.45;56.58;;;11.90;99.90;;;;;;5130866;27;20116;-70
2023/12/28 10:21:10;;;;;;;154.65;62.33;;;12.10;99.90;;;;;;5129694;27;20076;-69
2023/12/28 10:23:38;;;;;;;145.35;62.58;;;12.10;99.90;;;;;;5130688;27;20094;-68
2023/12/28 10:26:05;;;;;;;148.30;60.03;;;12.00;99.90;;;;;;5112136;27;20072;-69
2023/12/28 10:28:33;;;;;;;151.25;61.42;;;12.20;99.90;;;;;;5128658;27;20075;-67
2023/12/28 10:30:59;;;;;;;150.52;61.03;;;12.30;99.90;;;;;;5111009;27;20072;-68
2023/12/28 10:33:26;;;;;;;157.57;64.47;;;12.20;99.90;;;;;;5129138;27;20071;-68
2023/12/28 10:35:53;;;;;;;137.85;61.20;;;12.20;99.90;;;;;;5111618;27;20102;-68
2023/12/28 10:38:20;;;;;;;145.95;60.47;;;12.10;99.90;;;;;;5128249;27;20072;-68
2023/12/28 10:40:48;;;;;;;136.88;59.65;;;12.00;99.90;;;;;;5129563;27;20068;-67
2023/12/28 10:43:19;;;;;;;128.70;57.30;;;11.90;99.90;;;;;;5128238;27;20210;-68
2023/12/28 10:45:52;;;;;;;122.22;56.33;;;11.70;99.90;;;;;;5128008;27;20209;-67
2023/12/28 10:48:29;;;;;;;131.20;55.50;;;11.70;99.90;;;;;;5129531;27;20556;-68
2023/12/28 10:50:57;;;;;;;122.82;55.10;;;11.60;99.90;;;;;;5110947;27;20075;-68
2023/12/28 10:53:40;;;;;;;120.30;50.38;;;11.50;99.90;;;;;;5129846;27;20549;-68
2023/12/28 10:56:37;;;;;;;112.38;49.55;;;11.50;99.90;;;;;;5109872;27;20190;-67
2023/12/28 10:59:28;;;;;;;112.35;51.28;;;11.50;99.90;;;;;;5111269;27;20501;-67
2023/12/28 11:01:59;;;;;;;127.25;51.90;;;11.60;99.90;;;;;;5109544;27;20111;-66
2023/12/28 11:04:32;;;;;;;120.10;50.55;;;11.70;99.90;;;;;;5129077;27;20083;-68
2023/12/28 11:07:01;;;;;;;103.35;46.67;;;11.60;99.90;;;;;;5129656;27;20128;-68
2023/12/28 11:09:31;;;;;;;113.35;48.47;;;11.60;99.90;;;;;;5127279;27;20139;-67
2023/12/28 11:12:01;;;;;;;109.95;48.22;;;11.40;99.90;;;;;;5111561;27;20478;-68
2023/12/28 11:14:28;;;;;;;102.78;47.92;;;11.40;99.90;;;;;;5127575;27;20076;-67
2023/12/28 11:16:59;;;;;;;100.00;45.83;;;11.20;99.90;;;;;;5128342;27;20559;-67
2023/12/28 11:19:28;;;;;;;103.97;45.40;;;11.10;99.90;;;;;;5128728;27;20079;-67
2023/12/28 11:21:56;;;;;;;101.65;44.67;;;11.00;99.90;;;;;;5128957;27;20156;-69
2023/12/28 11:24:24;;;;;;;103.47;45.97;;;10.90;99.90;;;;;;5110444;27;20102;-68
2023/12/28 11:26:57;;;;;;;116.85;59.60;;;11.00;99.90;;;;;;5109958;27;20072;-67
2023/12/28 11:29:25;;;;;;;108.20;59.85;;;11.10;99.90;;;;;;5128779;27;20076;-66
2023/12/28 11:31:52;;;;;;;105.70;56.75;;;11.00;99.90;;;;;;5127726;27;20079;-67
2023/12/28 11:34:19;;;;;;;118.60;59.75;;;11.00;99.90;;;;;;5092410;27;20063;-67
2023/12/28 11:36:57;;;;;;;112.50;60.10;;;11.20;99.90;;;;;;5127844;27;20071;-67
2023/12/28 11:39:34;;;;;;;101.93;43.80;;;11.10;99.90;;;;;;5129347;27;20448;-68
2023/12/28 11:42:05;;;;;;;99.75;43.28;;;11.00;99.90;;;;;;5123180;27;20154;-69
2023/12/28 11:44:43;;;;;;;107.10;44.05;;;10.90;99.90;;;;;;5127831;27;20090;-67
2023/12/28 11:47:13;;;;;;;97.93;44.70;;;10.80;99.90;;;;;;5127375;27;20082;-68
2023/12/28 11:49:40;;;;;;;115.85;44.95;;;10.70;99.90;;;;;;5129027;27;20083;-67
2023/12/28 11:52:08;;;;;;;100.07;43.25;;;10.80;99.90;;;;;;5126963;27;20076;-67
2023/12/28 11:54:35;;;;;;;103.93;43.97;;;10.90;99.90;;;;;;5129985;27;20091;-66
2023/12/28 11:57:02;;;;;;;98.65;45.25;;;10.90;99.90;;;;;;5128561;27;20124;-67
2023/12/28 11:59:28;;;;;;;96.85;44.47;;;10.90;99.90;;;;;;5127324;27;20072;-66
2023/12/28 12:01:55;;;;;;;86.13;41.45;;;10.80;99.90;;;;;;5126912;27;20207;-67
2023/12/28 12:04:22;;;;;;;88.53;42.38;;;10.80;99.90;;;;;;5125777;27;20067;-66
2023/12/28 12:06:51;;;;;;;80.15;40.83;;;10.70;99.90;;;;;;5109328;27;20072;-69
2023/12/28 12:09:22;;;;;;;90.40;40.63;;;10.70;99.90;;;;;;5126838;27;20135;-69
2023/12/28 12:11:49;;;;;;;85.30;40.00;;;10.70;99.90;;;;;;5127145;27;20107;-68
2023/12/28 12:14:15;;;;;;;84.63;39.53;;;10.60;99.90;;;;;;5127456;27;20173;-69
2023/12/28 12:16:42;;;;;;;85.07;38.85;;;10.50;99.90;;;;;;5127789;27;20107;-69
2023/12/28 12:19:08;;;;;;;71.03;36.88;;;10.50;99.90;;;;;;5128900;27;20164;-68
2023/12/28 12:21:35;;;;;;;73.40;37.65;;;10.60;99.90;;;;;;5124528;27;20095;-66
2023/12/28 12:24:02;;;;;;;78.43;37.80;;;10.50;99.90;;;;;;5124358;27;20444;-68
2023/12/28 12:26:31;;;;;;;79.13;37.40;;;10.50;99.90;;;;;;5128069;27;20071;-68